Historique des mesures à Cassis (13260), France
Quotidien Résumé Fevrier 1, 2021 Unités:  Métrique    US   Métrique/US
Quotidien Hebdomadaire Mensuel Annuel
  Maximum: Minimum: Moyenne:
Température: 18.3 °C 13.8 °C 16.5 °C
Point de rosée: 14.2 °C 6.6 °C 11.5 °C
Humidité: 89% 58% 73%
Vitesse du vent: 40.7km/h 0km/h 16.9km/h
Rafales: 54km/h - -
Vent- - WSW
Pression: 1006.1 hPa 999.5 hPa -
Précipitations: 11.4 mm    
Historical Graphs
 
 
Mesures pour : Fevrier 1, 2021
Heure Temperature Point de rosée Pression Vent Vitesse du vent Rafales Humidité Pluie (par heure)
00:10 16.8 °C 12.5 °C 1006.1 hPa Calm   18.7 km/h 76% 0.0 mm
01:11 16.9 °C 12.6 °C 1005.0 hPa ENE 7.9 km/h 20.2 km/h 76% 0.0 mm
02:10 16.9 °C 12.8 °C 1004.2 hPa ENE 7.2 km/h 11.5 km/h 77% 0.0 mm
03:11 17.1 °C 13 °C 1003.4 hPa East 4.3 km/h 12.6 km/h 77% 0.0 mm
04:10 17 °C 12.9 °C 1002.5 hPa ESE 7.2 km/h 9 km/h 77% 0.0 mm
05:11 17.1 °C 13.2 °C 1002.3 hPa East 5 km/h 11.9 km/h 78% 0.0 mm
06:10 16.5 °C 13.2 °C 1001.2 hPa East 8.3 km/h 8.3 km/h 81% 0.0 mm
07:11 16.8 °C 13.7 °C 1000.5 hPa SE 2.9 km/h 13 km/h 82% 0.0 mm
08:11 16.4 °C 13.9 °C 1000.4 hPa NNW 4 km/h 10.1 km/h 85% 0.5 mm
09:10 16.3 °C 14.2 °C 999.9 hPa NW 3.2 km/h 7.2 km/h 87% 1.0 mm
10:11 15.3 °C 13.5 °C 1000.5 hPa NNW 13.7 km/h 27.4 km/h 89% 8.9 mm
11:10 15.9 °C 13.8 °C 999.7 hPa NW 25.6 km/h 36 km/h 87% 1.0 mm
12:11 17.3 °C 14 °C 999.9 hPa NNW 26.6 km/h 35.3 km/h 81% 0.0 mm
13:10 17.1 °C 12 °C 999.7 hPa NW 32.4 km/h 49.3 km/h 72% 0.0 mm
14:11 18.3 °C 10.4 °C 999.5 hPa NW 21.6 km/h 54 km/h 60% 0.0 mm
15:10 18.2 °C 11 °C 1000.1 hPa WNW 16.9 km/h 36.7 km/h 63% 0.0 mm
16:11 17.7 °C 11.3 °C 1000.8 hPa NW 23.8 km/h 43.9 km/h 66% 0.0 mm
17:10 17 °C 10.4 °C 1001.4 hPa WSW 30.2 km/h 30.2 km/h 65% 0.0 mm
18:11 16.4 °C 9.4 °C 1001.6 hPa NNW 20.9 km/h 28.8 km/h 63% 0.0 mm
19:10 16.1 °C 7.9 °C 1002.2 hPa WNW 40.7 km/h 40.7 km/h 58% 0.0 mm
20:11 15.4 °C 7.7 °C 1003.3 hPa NW 27.4 km/h 38.9 km/h 60% 0.0 mm
21:10 14.9 °C 8.1 °C 1003.8 hPa NW 22 km/h 31.7 km/h 64% 0.0 mm
22:11 14.2 °C 7.2 °C 1004.1 hPa NNW 21.6 km/h 32.8 km/h 63% 0.0 mm
23:10 13.8 °C 6.6 °C 1004.3 hPa NW 33.1 km/h 33.1 km/h 62% 0.0 mm
Observations météo à CASSIS
WU-History script by Weather Underground - 2 mb